Date,TemperatureHighF,TemperatureAvgF,TemperatureLowF,DewpointHighF,DewpointAvgF,DewpointLowF,HumidityHigh,HumidityAvg,HumidityLow,PressureMaxIn,PressureMinIn,WindSpeedMaxMPH,WindSpeedAvgMPH,GustSpeedMaxMPH,PrecipitationSumIn
2013-1-1,47.7,41.9,38.5,36.9,34.4,31.6,79,74,65,29.49,28.87,18,8,26,0.00
2013-1-2,54.1,48.2,42.1,48.4,42.5,35.1,86,81,73,29.62,29.49,25,7,30,0.11
2013-1-3,54.5,53.1,51.4,47.8,45.8,44.1,81,76,71,29.98,29.61,23,9,35,0.02
2013-1-4,52.9,51.1,49.3,46.7,44.3,41.7,82,77,71,30.05,29.97,21,8,25,0.00
2013-1-5,53.2,50.7,46.6,46.3,43.4,40.7,83,76,70,30.03,29.84,21,7,30,0.00
2013-1-6,53.1,48.2,42.1,44.5,41.1,37.5,85,76,67,30.02,29.75,17,5,23,0.00
2013-1-7,51.8,49.8,47.1,46.3,44.2,43.1,87,81,75,29.75,29.59,15,3,21,0.19
2013-1-8,54.7,49.7,44.1,47.6,43.0,37.1,87,78,69,29.74,29.54,21,6,29,0.04
2013-1-9,50.4,44.0,41.2,40.1,37.1,35.6,82,77,67,29.73,29.62,12,6,17,0.00
2013-1-10,41.9,40.2,37.9,38.6,36.2,33.2,89,86,81,29.62,29.52,8,2,11,0.01
2013-1-11,41.9,39.3,36.7,37.7,34.9,29.4,89,84,73,29.58,29.54,6,0,9,0.01
2013-1-12,51.1,38.1,33.4,37.7,30.6,27.1,85,75,51,29.71,29.51,7,0,12,0.00
2013-1-13,38.8,36.5,33.6,33.4,29.5,26.2,84,76,66,29.71,29.54,11,2,14,0.04
2013-1-14,43.7,37.1,34.2,34.9,30.1,26.1,87,76,64,29.54,29.29,9,2,14,0.02
2013-1-15,50.7,34.7,26.6,37.9,27.6,19.5,85,75,58,29.47,29.38,8,1,12,0.01
2013-1-16,36.7,31.6,26.1,24.9,22.2,19.5,79,68,55,29.55,29.40,3,0,5,0.00
2013-1-17,46.8,34.4,32.2,26.3,22.0,17.7,68,60,41,29.56,29.37,10,1,17,0.01
2013-1-18,44.1,34.4,30.7,28.3,23.1,18.9,82,64,44,29.37,29.14,11,2,22,0.00
2013-1-19,52.9,35.8,31.6,36.9,27.3,24.2,79,72,45,29.32,29.16,5,1,9,0.01
2013-1-20,36.0,35.0,34.0,27.0,24.8,22.5,73,66,61,29.29,29.11,4,1,8,0.00
2013-1-21,36.0,35.0,33.8,30.1,28.5,23.9,82,77,62,29.12,29.05,6,2,12,0.06
2013-1-22,37.6,35.7,33.8,30.9,29.3,28.0,82,77,71,29.42,29.10,4,0,11,0.01
2013-1-23,39.2,35.5,33.1,31.8,28.2,26.1,77,74,69,29.52,29.41,8,0,9,0.00
2013-1-24,40.3,36.8,34.9,31.9,27.6,23.0,82,69,55,29.63,29.53,12,1,17,0.00
2013-1-25,39.7,37.6,36.0,31.1,28.4,23.8,77,69,58,29.54,28.96,11,2,18,0.04
2013-1-26,49.8,41.8,36.1,41.0,33.8,29.6,86,73,63,29.14,28.53,30,8,40,0.13
2013-1-27,50.7,50.0,49.1,42.7,42.1,40.8,76,74,72,28.53,28.37,30,18,42,0.11
2013-1-28,48.4,43.4,39.6,40.6,35.0,31.1,84,72,62,28.90,28.45,24,14,38,0.40
2013-1-29,54.0,47.9,45.7,47.4,38.9,33.5,83,71,58,28.90,28.51,26,11,41,0.59
2013-1-30,48.0,44.3,41.4,36.4,34.3,32.0,80,68,59,29.21,28.70,27,12,36,0.12
2013-1-31,47.7,42.8,38.1,37.3,34.9,32.6,83,74,61,29.23,28.78,20,10,31,0.22